createdAt,value
2019-03-01T00:00:00.732Z,8.50
2019-03-01T00:02:28.023Z,8.50
2019-03-01T00:05:13.503Z,8.08
2019-03-01T00:08:09.402Z,8.33
2019-03-01T00:10:49.009Z,7.62
2019-03-01T00:13:39.310Z,8.13
2019-03-01T00:16:19.037Z,8.90
2019-03-01T00:19:06.481Z,9.70
2019-03-01T00:21:43.003Z,9.10
2019-03-01T00:24:22.131Z,8.80
2019-03-01T00:27:01.355Z,9.28
2019-03-01T00:29:31.614Z,9.18
2019-03-01T00:32:04.954Z,8.10
2019-03-01T00:34:41.651Z,8.58
2019-03-01T00:37:21.081Z,8.88
2019-03-01T00:40:08.158Z,9.03
2019-03-01T00:42:39.559Z,9.70
2019-03-01T00:45:07.303Z,12.78
2019-03-01T00:47:33.925Z,11.22
2019-03-01T00:50:00.686Z,11.10
2019-03-01T00:52:27.283Z,14.78
2019-03-01T00:54:53.972Z,16.23
2019-03-01T00:57:20.643Z,17.40
2019-03-01T00:59:47.442Z,18.25
2019-03-01T01:02:14.150Z,17.57
2019-03-01T01:04:40.977Z,18.10
2019-03-01T01:07:07.586Z,16.62
2019-03-01T01:09:34.239Z,17.77
2019-03-01T01:12:00.905Z,17.40
2019-03-01T01:14:27.674Z,17.23
2019-03-01T01:16:54.387Z,16.90
2019-03-01T01:19:21.288Z,16.40
2019-03-01T01:21:47.996Z,16.73
2019-03-01T01:24:14.629Z,17.37
2019-03-01T01:26:41.331Z,17.62
2019-03-01T01:29:07.927Z,17.80
2019-03-01T01:31:34.949Z,17.75
2019-03-01T01:34:01.740Z,17.92
2019-03-01T01:36:28.360Z,17.23
2019-03-01T01:38:55.016Z,17.48
2019-03-01T01:41:21.719Z,17.12
2019-03-01T01:43:48.334Z,16.45
2019-03-01T01:46:15.004Z,16.07
2019-03-01T01:48:41.670Z,13.53
2019-03-01T01:51:08.286Z,13.72
2019-03-01T01:53:35.015Z,14.25
2019-03-01T01:56:01.699Z,14.45
2019-03-01T01:58:28.392Z,13.45
2019-03-01T02:00:55.086Z,14.63
2019-03-01T02:03:21.791Z,14.60
2019-03-01T02:05:48.686Z,14.70
2019-03-01T02:08:15.353Z,13.85
2019-03-01T02:10:42.039Z,13.13
2019-03-01T02:13:08.722Z,14.38
2019-03-01T02:15:35.489Z,56.18
2019-03-01T02:18:02.314Z,56.55
2019-03-01T02:20:29.999Z,51.15
2019-03-01T02:22:56.658Z,79.47
2019-03-01T02:25:23.528Z,59.48
2019-03-01T02:27:50.160Z,47.00
2019-03-01T02:30:23.562Z,37.25
2019-03-01T02:32:50.309Z,20.32
2019-03-01T02:35:18.060Z,16.85
2019-03-01T02:37:44.810Z,14.93
2019-03-01T02:40:13.193Z,14.75
2019-03-01T02:42:39.822Z,15.30
2019-03-01T02:45:12.300Z,14.13
2019-03-01T02:47:39.025Z,14.70
2019-03-01T02:50:08.438Z,14.47
2019-03-01T02:52:35.275Z,13.93
2019-03-01T02:55:03.441Z,14.75
2019-03-01T02:57:30.190Z,14.73
2019-03-01T02:59:56.926Z,14.45
2019-03-01T03:02:23.618Z,14.15
2019-03-01T03:04:50.231Z,14.98
2019-03-01T03:07:18.785Z,16.52
2019-03-01T03:09:45.623Z,14.65
2019-03-01T03:12:12.668Z,15.85
2019-03-01T03:14:39.413Z,16.40
2019-03-01T03:17:06.148Z,15.32
2019-03-01T03:19:32.783Z,17.25
2019-03-01T03:22:00.444Z,18.37
2019-03-01T03:24:27.180Z,17.67
2019-03-01T03:26:53.818Z,17.05
2019-03-01T03:29:20.662Z,16.50
2019-03-01T03:31:47.421Z,16.85
2019-03-01T03:34:14.141Z,16.90
2019-03-01T03:36:40.832Z,16.30
2019-03-01T03:39:10.178Z,16.35
2019-03-01T03:41:37.020Z,16.37
2019-03-01T03:44:03.767Z,15.85
2019-03-01T03:46:30.481Z,15.88
2019-03-01T03:48:57.250Z,16.52
2019-03-01T03:51:23.979Z,16.48
2019-03-01T03:53:50.725Z,15.68
2019-03-01T03:56:17.375Z,14.68
2019-03-01T03:58:43.982Z,15.98
2019-03-01T04:01:10.733Z,15.68
2019-03-01T04:03:37.367Z,15.90
2019-03-01T04:06:04.119Z,15.65
2019-03-01T04:08:30.952Z,14.85
2019-03-01T04:10:57.585Z,14.98
2019-03-01T04:13:24.233Z,14.25
2019-03-01T04:15:50.980Z,14.23
2019-03-01T04:18:17.603Z,14.58
2019-03-01T04:20:44.262Z,14.60
2019-03-01T04:23:11.178Z,14.47
2019-03-01T04:25:37.925Z,15.23
2019-03-01T04:28:04.659Z,16.30
2019-03-01T04:30:31.404Z,15.08
2019-03-01T04:32:58.167Z,17.32
2019-03-01T04:35:24.877Z,15.68
2019-03-01T04:37:51.727Z,15.63
2019-03-01T04:40:18.459Z,15.10
2019-03-01T04:42:45.306Z,14.60
2019-03-01T04:45:13.472Z,14.70
2019-03-01T04:47:40.220Z,14.63
2019-03-01T04:50:09.965Z,16.12
2019-03-01T04:52:36.937Z,16.10
2019-03-01T04:55:16.007Z,15.50
2019-03-01T04:57:42.738Z,16.67
2019-03-01T05:00:14.813Z,17.37
2019-03-01T05:05:08.482Z,16.15
2019-03-01T05:07:35.220Z,16.48
2019-03-01T05:10:02.789Z,15.95
2019-03-01T05:12:30.542Z,15.98
2019-03-01T05:14:57.234Z,16.52
2019-03-01T05:17:23.849Z,14.85
2019-03-01T05:19:50.508Z,16.35
2019-03-01T05:22:17.298Z,15.68
2019-03-01T05:24:44.241Z,15.68
2019-03-01T05:27:10.944Z,15.78
2019-03-01T05:29:37.640Z,16.62
2019-03-01T05:32:04.236Z,16.45
2019-03-01T05:34:30.906Z,17.73
2019-03-01T05:36:57.630Z,17.42
2019-03-01T05:39:24.246Z,16.97
2019-03-01T05:41:50.837Z,17.52
2019-03-01T05:44:17.528Z,18.65
2019-03-01T05:46:44.186Z,17.73
2019-03-01T05:49:10.798Z,18.10
2019-03-01T05:51:37.471Z,17.35
2019-03-01T05:54:04.063Z,16.65
2019-03-01T05:56:30.678Z,17.25
2019-03-01T06:02:58.541Z,16.85
2019-03-01T06:05:59.195Z,16.67
2019-03-01T06:12:12.510Z,16.12
2019-03-01T06:15:46.669Z,17.70
2019-03-01T06:19:07.664Z,17.05
2019-03-01T06:22:42.688Z,16.87
2019-03-01T06:25:54.328Z,12.75
2019-03-01T06:29:15.426Z,16.90
2019-03-01T06:35:56.337Z,20.27
2019-03-01T06:49:22.360Z,21.17
2019-03-01T06:52:33.909Z,21.82
2019-03-01T06:59:18.308Z,20.00
2019-03-01T07:05:46.058Z,19.48
2019-03-01T07:09:05.032Z,21.75
2019-03-01T07:12:08.332Z,20.50
2019-03-01T07:15:25.978Z,20.82
2019-03-01T07:18:26.551Z,20.45
2019-03-01T07:21:42.151Z,21.10
2019-03-01T07:28:27.370Z,23.32
2019-03-01T07:34:56.477Z,29.18
2019-03-01T07:38:01.325Z,32.40
2019-03-01T07:41:14.690Z,31.70
2019-03-01T07:44:18.585Z,28.07
2019-03-01T07:50:25.627Z,24.32
2019-03-01T07:53:16.739Z,20.48
2019-03-01T07:56:25.515Z,21.95
2019-03-01T07:59:49.188Z,15.40
2019-03-01T08:02:45.981Z,23.32
2019-03-01T08:06:00.846Z,25.40
2019-03-01T08:08:43.306Z,23.25
2019-03-01T08:11:31.767Z,20.82
2019-03-01T08:14:31.550Z,22.22
2019-03-01T08:17:31.609Z,22.17
2019-03-01T08:20:33.917Z,24.02
2019-03-01T08:23:22.826Z,25.17
2019-03-01T08:26:04.138Z,25.37
2019-03-01T08:29:04.314Z,26.68
2019-03-01T08:32:02.074Z,25.70
2019-03-01T08:35:11.544Z,25.62
2019-03-01T08:38:17.181Z,29.20
2019-03-01T08:41:33.915Z,25.43
2019-03-01T08:44:49.969Z,23.80
2019-03-01T08:48:08.403Z,19.90
2019-03-01T08:51:14.964Z,20.08
2019-03-01T08:54:22.982Z,18.70
2019-03-01T08:57:28.212Z,19.27
2019-03-01T09:00:45.048Z,17.57
2019-03-01T09:03:41.587Z,16.00
2019-03-01T09:06:44.313Z,17.25
2019-03-01T09:09:45.313Z,17.52
2019-03-01T09:12:56.153Z,17.65
2019-03-01T09:15:57.437Z,18.82
2019-03-01T09:19:08.658Z,18.95
2019-03-01T09:22:06.006Z,18.52
2019-03-01T09:25:14.479Z,18.85
2019-03-01T09:28:20.566Z,17.62
2019-03-01T09:31:34.815Z,19.15
2019-03-01T09:34:49.512Z,18.10
2019-03-01T09:37:45.632Z,17.75
2019-03-01T09:41:04.423Z,18.57
2019-03-01T09:43:52.022Z,18.80
2019-03-01T09:47:04.432Z,18.37
2019-03-01T09:49:36.302Z,19.52
2019-03-01T09:52:35.015Z,19.12
2019-03-01T09:55:38.562Z,19.30
2019-03-01T09:58:39.294Z,17.70
2019-03-01T10:01:48.997Z,18.02
2019-03-01T10:04:55.675Z,18.95
2019-03-01T10:08:14.139Z,18.65
2019-03-01T10:11:26.035Z,20.12
2019-03-01T10:14:32.669Z,18.27
2019-03-01T10:17:35.980Z,18.20
2019-03-01T10:20:49.940Z,19.00
2019-03-01T10:23:48.857Z,18.05
2019-03-01T10:27:08.318Z,18.12
2019-03-01T10:30:15.270Z,18.82
2019-03-01T10:33:21.745Z,19.25
2019-03-01T10:36:04.991Z,18.70
2019-03-01T10:39:02.753Z,20.27
2019-03-01T10:42:15.801Z,19.48
2019-03-01T10:48:36.408Z,20.25
2019-03-01T10:51:52.398Z,20.25
2019-03-01T10:58:24.155Z,17.87
2019-03-01T11:07:27.750Z,16.75
2019-03-01T11:10:27.353Z,16.70
2019-03-01T11:13:50.999Z,16.37
2019-03-01T11:20:29.742Z,15.55
2019-03-01T11:27:00.325Z,16.27
2019-03-01T11:30:20.188Z,16.73
2019-03-01T11:33:17.582Z,16.80
2019-03-01T11:36:14.522Z,16.20
2019-03-01T11:39:29.911Z,16.20
2019-03-01T11:46:02.647Z,17.00
2019-03-01T11:49:22.818Z,17.20
2019-03-01T11:55:58.262Z,16.55
2019-03-01T12:02:33.205Z,17.25
2019-03-01T12:05:26.811Z,17.87
2019-03-01T12:08:36.510Z,17.02
2019-03-01T12:11:57.273Z,17.07
2019-03-01T12:14:59.482Z,16.90
2019-03-01T12:18:16.328Z,17.42
2019-03-01T12:21:20.819Z,18.37
2019-03-01T12:24:33.593Z,18.37
2019-03-01T12:27:37.681Z,18.37
2019-03-01T12:30:55.044Z,17.77
2019-03-01T12:34:02.313Z,18.10
2019-03-01T12:37:23.266Z,19.15
2019-03-01T12:40:34.449Z,19.85
2019-03-01T12:43:47.528Z,19.52
2019-03-01T12:50:21.617Z,19.57
2019-03-01T12:53:45.734Z,19.17
2019-03-01T12:56:49.598Z,20.57
2019-03-01T13:00:05.103Z,21.48
2019-03-01T13:03:09.081Z,21.97
2019-03-01T13:06:21.088Z,21.30
2019-03-01T13:09:27.344Z,22.00
2019-03-01T13:15:54.183Z,20.70
2019-03-01T13:18:56.817Z,21.95
2019-03-01T13:22:14.787Z,21.97
2019-03-01T13:28:51.253Z,21.93
2019-03-01T13:35:10.731Z,22.95
2019-03-01T13:38:19.379Z,22.37
2019-03-01T13:41:40.888Z,21.73
2019-03-01T13:44:11.332Z,22.95
2019-03-01T13:47:08.579Z,23.40
2019-03-01T13:50:22.836Z,22.82
2019-03-01T13:56:42.886Z,22.45
2019-03-01T13:59:44.694Z,23.25
2019-03-01T14:03:02.009Z,23.02
2019-03-01T14:05:54.707Z,23.40
2019-03-01T14:08:59.860Z,21.73
2019-03-01T14:12:07.679Z,22.90
2019-03-01T14:15:10.786Z,22.60
2019-03-01T14:18:28.358Z,22.48
2019-03-01T14:24:54.819Z,23.52
2019-03-01T14:27:52.868Z,23.38
2019-03-01T14:31:04.036Z,23.70
2019-03-01T14:37:11.059Z,22.37
2019-03-01T14:40:14.221Z,22.07
2019-03-01T14:43:32.574Z,20.57
2019-03-01T14:46:34.277Z,21.15
2019-03-01T14:49:54.049Z,22.32
2019-03-01T14:52:58.409Z,23.47
2019-03-01T14:56:14.511Z,23.35
2019-03-01T14:59:17.513Z,22.93
2019-03-01T15:02:41.497Z,23.27
2019-03-01T15:05:45.585Z,25.12
2019-03-01T15:09:06.555Z,24.02
2019-03-01T15:12:21.120Z,23.38
2019-03-01T15:15:33.980Z,25.15
2019-03-01T15:18:32.394Z,23.02
2019-03-01T15:21:49.248Z,23.70
2019-03-01T15:28:25.075Z,25.85
2019-03-01T15:35:02.788Z,22.17
2019-03-01T15:37:53.120Z,22.53
2019-03-01T15:41:09.244Z,21.93
2019-03-01T15:47:31.673Z,23.40
2019-03-01T15:50:47.988Z,25.72
2019-03-01T15:53:51.444Z,26.65
2019-03-01T15:56:48.552Z,27.13
2019-03-01T15:59:51.718Z,26.07
2019-03-01T16:02:49.946Z,25.27
2019-03-01T16:06:10.281Z,26.93
2019-03-01T16:09:03.791Z,26.40
2019-03-01T16:12:06.226Z,26.85
2019-03-01T16:14:57.423Z,25.95
2019-03-01T16:17:53.826Z,24.63
2019-03-01T16:21:05.266Z,24.98
2019-03-01T16:24:11.306Z,23.80
2019-03-01T16:27:12.042Z,25.02
2019-03-01T16:30:06.948Z,24.47
2019-03-01T16:33:15.960Z,26.07
2019-03-01T16:39:45.006Z,24.10
2019-03-01T16:42:45.335Z,24.25
2019-03-01T16:45:56.318Z,23.25
2019-03-01T16:48:58.934Z,24.07
2019-03-01T16:52:11.662Z,23.77
2019-03-01T16:55:20.515Z,24.32
2019-03-01T16:58:36.810Z,25.12
2019-03-01T17:01:46.377Z,26.00
2019-03-01T17:05:03.685Z,24.25
2019-03-01T17:08:05.612Z,27.25
2019-03-01T17:11:09.372Z,24.02
2019-03-01T17:14:03.395Z,19.73
2019-03-01T17:17:07.210Z,28.47
2019-03-01T17:20:14.728Z,27.70
2019-03-01T17:23:24.759Z,28.77
2019-03-01T17:26:38.973Z,27.58
2019-03-01T17:29:35.789Z,21.10
2019-03-01T17:32:36.939Z,26.57
2019-03-01T17:35:32.975Z,27.85
2019-03-01T17:38:33.156Z,27.87
2019-03-01T17:41:45.866Z,29.57
2019-03-01T17:44:47.635Z,28.47
2019-03-01T17:47:42.198Z,30.05
2019-03-01T17:50:57.011Z,29.27
2019-03-01T17:54:00.503Z,28.20
2019-03-01T17:57:24.377Z,29.10
2019-03-01T18:00:31.530Z,29.87
2019-03-01T18:03:58.091Z,29.18
2019-03-01T18:06:56.802Z,48.68
2019-03-01T18:10:17.784Z,41.10
2019-03-01T18:13:15.132Z,34.85
2019-03-01T18:16:32.305Z,34.08
2019-03-01T18:19:35.221Z,38.67
2019-03-01T18:22:51.600Z,33.00
2019-03-01T18:25:22.882Z,40.88
2019-03-01T18:27:53.129Z,34.67
2019-03-01T18:30:29.860Z,34.25
2019-03-01T18:32:56.472Z,33.05
2019-03-01T18:35:23.171Z,36.42
2019-03-01T18:37:51.466Z,38.42
2019-03-01T18:40:18.638Z,35.92
2019-03-01T18:42:45.286Z,35.95
2019-03-01T18:45:20.152Z,34.78
2019-03-01T18:47:46.950Z,36.08
2019-03-01T18:50:33.725Z,33.78
2019-03-01T18:53:03.604Z,23.77
2019-03-01T18:55:30.275Z,17.95
2019-03-01T18:57:56.867Z,12.15
2019-03-01T19:00:38.614Z,11.53
2019-03-01T19:03:06.003Z,12.58
2019-03-01T19:05:32.703Z,12.98
2019-03-01T19:08:00.838Z,12.30
2019-03-01T19:10:29.170Z,13.62
2019-03-01T19:12:55.787Z,14.07
2019-03-01T19:15:22.452Z,12.00
2019-03-01T19:17:49.130Z,8.80
2019-03-01T19:20:21.861Z,10.75
2019-03-01T19:22:48.668Z,9.15
2019-03-01T19:25:15.890Z,12.33
2019-03-01T19:27:42.502Z,18.73
2019-03-01T19:30:13.751Z,19.90
2019-03-01T19:32:40.457Z,20.23
2019-03-01T19:35:08.370Z,21.25
2019-03-01T19:37:35.079Z,23.10
2019-03-01T19:40:01.784Z,27.80
2019-03-01T19:42:32.791Z,27.35
2019-03-01T19:45:00.702Z,28.17
2019-03-01T19:47:27.379Z,30.95
2019-03-01T19:49:56.590Z,35.75
2019-03-01T19:52:23.350Z,31.77
2019-03-01T19:54:50.025Z,29.15
2019-03-01T19:57:16.741Z,29.07
2019-03-01T19:59:46.531Z,29.15
2019-03-01T20:02:11.985Z,29.18
2019-03-01T20:04:38.642Z,28.12
2019-03-01T20:07:06.226Z,27.37
2019-03-01T20:09:33.007Z,27.50
2019-03-01T20:12:02.697Z,28.67
2019-03-01T20:14:30.312Z,26.70
2019-03-01T20:16:58.178Z,27.37
2019-03-01T20:19:25.516Z,26.52
2019-03-01T20:21:52.123Z,29.95
2019-03-01T20:24:18.833Z,29.02
2019-03-01T20:26:45.548Z,29.20
2019-03-01T20:29:12.196Z,28.73
2019-03-01T20:31:40.476Z,28.87
2019-03-01T20:34:07.469Z,29.25
2019-03-01T20:36:34.055Z,27.75
2019-03-01T20:39:01.732Z,27.48
2019-03-01T20:41:30.199Z,28.77
2019-03-01T20:43:56.917Z,27.90
2019-03-01T20:46:24.474Z,26.52
2019-03-01T20:48:51.362Z,26.55
2019-03-01T20:51:18.186Z,27.82
2019-03-01T20:53:45.744Z,27.77
2019-03-01T20:56:16.795Z,27.77
2019-03-01T20:58:42.051Z,28.55
2019-03-01T21:01:08.703Z,28.23
2019-03-01T21:03:35.360Z,28.65
2019-03-01T21:06:04.666Z,31.02
2019-03-01T21:08:30.707Z,31.17
2019-03-01T21:10:57.403Z,33.42
2019-03-01T21:13:24.030Z,33.23
2019-03-01T21:15:50.688Z,32.65
2019-03-01T21:18:17.438Z,33.13
2019-03-01T21:20:45.036Z,33.28
2019-03-01T21:23:11.872Z,32.03
2019-03-01T21:25:40.838Z,31.77
2019-03-01T21:28:07.735Z,32.00
2019-03-01T21:30:34.354Z,32.10
2019-03-01T21:33:01.027Z,32.75
2019-03-01T21:35:27.638Z,33.98
2019-03-01T21:37:54.235Z,34.15
2019-03-01T21:40:20.998Z,34.38
2019-03-01T21:42:47.596Z,32.93
2019-03-01T21:45:21.525Z,34.05
2019-03-01T21:47:47.999Z,33.67
2019-03-01T21:50:15.547Z,32.98
2019-03-01T21:52:42.202Z,32.23
2019-03-01T21:55:18.390Z,33.92
2019-03-01T21:57:45.063Z,34.15
2019-03-01T22:00:15.298Z,36.30
2019-03-01T22:02:43.810Z,36.00
2019-03-01T22:05:13.638Z,36.15
2019-03-01T22:07:40.587Z,36.55
2019-03-01T22:10:11.334Z,34.65
2019-03-01T22:12:37.963Z,35.90
2019-03-01T22:15:10.952Z,35.98
2019-03-01T22:17:37.705Z,38.38
2019-03-01T22:20:08.920Z,37.80
2019-03-01T22:22:37.510Z,38.73
2019-03-01T22:25:12.019Z,38.38
2019-03-01T22:27:38.680Z,39.25
2019-03-01T22:30:31.757Z,41.77
2019-03-01T22:32:58.421Z,43.63
2019-03-01T22:35:25.127Z,42.08
2019-03-01T22:37:51.908Z,42.20
2019-03-01T22:40:18.613Z,43.30
2019-03-01T22:42:45.672Z,43.00
2019-03-01T22:45:15.302Z,42.13
2019-03-01T22:47:41.975Z,41.63
2019-03-01T22:50:15.900Z,42.08
2019-03-01T22:52:42.657Z,42.78
2019-03-01T22:55:13.999Z,40.98
2019-03-01T22:57:40.613Z,42.00
2019-03-01T23:00:27.182Z,39.40
2019-03-01T23:02:55.846Z,39.20
2019-03-01T23:05:22.475Z,41.08
2019-03-01T23:07:49.154Z,39.63
2019-03-01T23:10:18.454Z,40.15
2019-03-01T23:12:44.623Z,39.95
2019-03-01T23:15:11.287Z,39.65
2019-03-01T23:17:38.024Z,39.50
2019-03-01T23:20:08.911Z,39.33
2019-03-01T23:22:35.571Z,40.33
2019-03-01T23:25:02.252Z,39.10
2019-03-01T23:27:31.836Z,39.03
2019-03-01T23:29:57.452Z,40.43
2019-03-01T23:32:24.168Z,38.42
2019-03-01T23:34:50.919Z,39.88
2019-03-01T23:37:17.632Z,38.88
2019-03-01T23:39:44.329Z,41.23
2019-03-01T23:42:10.920Z,40.55
2019-03-01T23:44:38.667Z,42.35
2019-03-01T23:47:06.198Z,38.88
2019-03-01T23:49:32.915Z,38.67
2019-03-01T23:51:59.739Z,39.92
2019-03-01T23:54:26.503Z,38.92
2019-03-01T23:56:53.109Z,39.48
2019-03-01T23:59:19.795Z,39.10
